createdAt,value
2022-08-19T00:01:39.909Z,15.27
2022-08-19T00:04:12.466Z,14.60
2022-08-19T00:06:42.524Z,15.50
2022-08-19T00:09:13.778Z,15.23
2022-08-19T00:11:42.085Z,15.67
2022-08-19T00:14:12.346Z,14.93
2022-08-19T00:16:40.850Z,14.60
2022-08-19T00:19:11.183Z,14.67
2022-08-19T00:21:40.396Z,14.97
2022-08-19T00:24:09.004Z,14.50
2022-08-19T00:26:37.513Z,14.60
2022-08-19T00:29:05.888Z,14.45
2022-08-19T00:31:34.116Z,14.70
2022-08-19T00:34:02.045Z,14.38
2022-08-19T00:36:32.840Z,15.43
2022-08-19T00:39:00.898Z,15.68
2022-08-19T00:41:29.266Z,15.30
2022-08-19T00:44:00.813Z,14.93
2022-08-19T00:46:29.181Z,14.93
2022-08-19T00:48:58.576Z,14.85
2022-08-19T00:51:27.495Z,15.68
2022-08-19T00:53:57.610Z,15.23
2022-08-19T00:56:27.238Z,15.13
2022-08-19T00:58:56.312Z,15.43
2022-08-19T01:01:24.194Z,15.80
2022-08-19T01:03:57.117Z,15.55
2022-08-19T01:06:27.466Z,16.27
2022-08-19T01:08:57.396Z,14.43
2022-08-19T01:11:25.296Z,14.32
2022-08-19T01:13:54.557Z,14.93
2022-08-19T01:16:24.702Z,14.38
2022-08-19T01:18:53.300Z,14.85
2022-08-19T01:21:31.174Z,15.50
2022-08-19T01:24:00.536Z,14.55
2022-08-19T01:26:29.171Z,14.32
2022-08-19T01:29:02.029Z,15.15
2022-08-19T01:31:32.826Z,15.20
2022-08-19T01:34:01.975Z,15.68
2022-08-19T01:36:32.354Z,16.00
2022-08-19T01:39:03.077Z,15.70
2022-08-19T01:41:31.020Z,15.38
2022-08-19T01:44:13.698Z,15.00
2022-08-19T01:46:48.157Z,15.68
2022-08-19T01:49:17.271Z,15.55
2022-08-19T01:51:45.218Z,15.03
2022-08-19T01:54:23.090Z,15.23
2022-08-19T01:56:58.213Z,15.25
2022-08-19T01:59:26.519Z,14.93
2022-08-19T02:01:54.506Z,14.23
2022-08-19T02:04:22.576Z,14.77
2022-08-19T02:06:50.428Z,14.18
2022-08-19T02:09:19.680Z,14.75
2022-08-19T02:11:47.529Z,15.10
2022-08-19T02:14:15.410Z,15.43
2022-08-19T02:16:43.273Z,15.55
2022-08-19T02:19:11.385Z,14.80
2022-08-19T02:21:39.544Z,13.52
2022-08-19T02:24:07.801Z,13.82
2022-08-19T02:26:37.286Z,13.87
2022-08-19T02:29:05.652Z,14.00
2022-08-19T02:31:34.250Z,13.98
2022-08-19T02:34:02.620Z,13.60
2022-08-19T02:36:31.227Z,14.45
2022-08-19T02:38:58.305Z,13.95
2022-08-19T02:41:27.974Z,14.38
2022-08-19T02:44:28.591Z,14.87
2022-08-19T02:46:48.300Z,14.50
2022-08-19T02:49:17.376Z,14.05
2022-08-19T02:51:47.219Z,14.25
2022-08-19T02:54:15.340Z,14.48
2022-08-19T02:56:44.539Z,14.05
2022-08-19T02:59:13.857Z,14.40
2022-08-19T03:01:43.406Z,12.90
2022-08-19T03:04:13.643Z,13.18
2022-08-19T03:06:42.447Z,13.88
2022-08-19T03:09:11.153Z,14.07
2022-08-19T03:11:39.495Z,14.90
2022-08-19T03:14:08.572Z,14.27
2022-08-19T03:16:43.301Z,15.23
2022-08-19T03:19:11.220Z,14.85
2022-08-19T03:21:39.143Z,14.32
2022-08-19T03:24:09.919Z,14.18
2022-08-19T03:26:41.252Z,14.60
2022-08-19T03:29:10.349Z,14.30
2022-08-19T03:31:51.181Z,13.57
2022-08-19T03:34:23.220Z,14.40
2022-08-19T03:36:51.201Z,13.15
2022-08-19T03:39:19.440Z,13.70
2022-08-19T03:41:50.877Z,13.20
2022-08-19T03:44:39.565Z,13.55
2022-08-19T03:47:09.155Z,14.18
2022-08-19T03:49:38.844Z,12.75
2022-08-19T03:52:08.603Z,13.50
2022-08-19T03:54:37.147Z,13.13
2022-08-19T03:57:05.624Z,13.18
2022-08-19T03:59:36.242Z,12.77
2022-08-19T04:02:10.092Z,13.30
2022-08-19T04:04:40.290Z,14.32
2022-08-19T04:07:09.310Z,15.00
2022-08-19T04:09:38.198Z,14.57
2022-08-19T04:12:07.609Z,14.77
2022-08-19T04:14:36.108Z,16.15
2022-08-19T04:17:06.442Z,18.40
2022-08-19T04:19:35.381Z,19.98
2022-08-19T04:22:05.926Z,18.80
2022-08-19T04:24:34.017Z,20.95
2022-08-19T04:27:03.038Z,18.75
2022-08-19T04:29:31.404Z,17.50
2022-08-19T04:32:08.805Z,17.17
2022-08-19T04:35:02.274Z,17.95
2022-08-19T04:37:34.686Z,17.25
2022-08-19T04:40:23.973Z,17.38
2022-08-19T04:42:52.243Z,15.38
2022-08-19T04:45:20.741Z,16.40
2022-08-19T04:47:57.921Z,16.17
2022-08-19T04:50:42.680Z,16.88
2022-08-19T04:53:12.210Z,16.45
2022-08-19T04:55:43.904Z,17.38
2022-08-19T04:58:11.930Z,16.73
2022-08-19T05:00:40.951Z,17.25
2022-08-19T05:03:09.614Z,19.30
2022-08-19T05:05:45.321Z,19.70
2022-08-19T05:08:31.506Z,20.08
2022-08-19T05:11:00.055Z,20.20
2022-08-19T05:13:28.472Z,21.55
2022-08-19T05:15:57.886Z,20.33
2022-08-19T05:18:43.532Z,20.38
2022-08-19T05:21:32.026Z,19.75
2022-08-19T05:24:01.430Z,20.27
2022-08-19T05:26:29.684Z,21.33
2022-08-19T05:28:57.573Z,20.10
2022-08-19T05:31:25.456Z,19.75
2022-08-19T05:33:53.282Z,19.30
2022-08-19T05:36:21.715Z,21.23
2022-08-19T05:38:51.065Z,20.52
2022-08-19T05:41:21.584Z,18.60
2022-08-19T05:43:51.687Z,19.55
2022-08-19T05:46:28.108Z,20.02
2022-08-19T05:48:57.449Z,24.73
2022-08-19T05:51:28.907Z,26.45
2022-08-19T05:53:57.334Z,26.80
2022-08-19T05:56:26.638Z,26.95
2022-08-19T05:58:55.171Z,27.65
2022-08-19T06:01:23.457Z,25.67
2022-08-19T06:03:51.867Z,25.08
2022-08-19T06:06:21.019Z,28.23
2022-08-19T06:08:51.726Z,26.23
2022-08-19T06:11:22.921Z,26.73
2022-08-19T06:13:59.700Z,25.23
2022-08-19T06:16:28.920Z,26.33
2022-08-19T06:18:58.512Z,26.53
2022-08-19T06:21:29.278Z,25.10
2022-08-19T06:23:58.166Z,27.63
2022-08-19T06:26:27.461Z,26.40
2022-08-19T06:28:57.095Z,25.63
2022-08-19T06:31:27.007Z,26.25
2022-08-19T06:33:55.229Z,26.38
2022-08-19T06:36:32.608Z,27.17
2022-08-19T06:39:00.677Z,25.27
2022-08-19T06:41:28.888Z,26.20
2022-08-19T06:44:00.031Z,27.23
2022-08-19T06:46:28.426Z,28.30
2022-08-19T06:48:56.996Z,27.45
2022-08-19T06:51:25.230Z,26.98
2022-08-19T06:53:56.549Z,28.98
2022-08-19T06:56:34.660Z,28.60
2022-08-19T06:59:06.231Z,27.05
2022-08-19T07:01:38.410Z,29.35
2022-08-19T07:04:07.935Z,27.60
2022-08-19T07:06:44.262Z,26.20
2022-08-19T07:09:18.353Z,26.55
2022-08-19T07:11:47.827Z,25.85
2022-08-19T07:14:19.882Z,25.05
2022-08-19T07:16:49.388Z,25.77
2022-08-19T07:19:18.844Z,24.20
2022-08-19T07:21:48.124Z,23.92
2022-08-19T07:24:17.191Z,24.03
2022-08-19T07:26:46.288Z,23.75
2022-08-19T07:29:14.964Z,23.98
2022-08-19T07:31:44.302Z,21.65
2022-08-19T07:34:14.445Z,22.73
2022-08-19T07:36:44.222Z,22.88
2022-08-19T07:39:19.896Z,24.90
2022-08-19T07:41:48.496Z,23.75
2022-08-19T07:44:17.262Z,22.75
2022-08-19T07:46:51.532Z,22.92
2022-08-19T07:49:22.333Z,22.85
2022-08-19T07:51:52.212Z,21.85
2022-08-19T07:54:21.252Z,22.93
2022-08-19T07:56:52.481Z,22.67
2022-08-19T07:59:21.549Z,21.38
2022-08-19T08:01:51.295Z,23.17
2022-08-19T08:04:37.485Z,22.05
2022-08-19T08:07:24.119Z,20.73
2022-08-19T08:09:52.304Z,18.90
2022-08-19T08:12:34.317Z,21.20
2022-08-19T08:15:08.156Z,19.75
2022-08-19T08:17:48.834Z,20.83
2022-08-19T08:20:20.794Z,19.45
2022-08-19T08:23:06.853Z,19.10
2022-08-19T08:25:36.571Z,20.60
2022-08-19T08:28:06.054Z,20.63
2022-08-19T08:30:36.745Z,20.08
2022-08-19T08:33:06.799Z,19.63
2022-08-19T08:35:35.410Z,19.75
2022-08-19T08:38:04.686Z,19.00
2022-08-19T08:40:39.245Z,18.07
2022-08-19T08:43:11.639Z,19.43
2022-08-19T08:45:45.649Z,18.20
2022-08-19T08:48:26.579Z,18.30
2022-08-19T08:50:57.070Z,18.45
2022-08-19T08:53:29.239Z,18.92
2022-08-19T08:55:58.361Z,18.08
2022-08-19T08:58:30.212Z,17.52
2022-08-19T09:00:59.408Z,17.88
2022-08-19T09:03:31.671Z,17.42
2022-08-19T09:06:04.389Z,16.63
2022-08-19T09:08:40.943Z,17.10
2022-08-19T09:11:15.669Z,13.65
2022-08-19T09:14:23.576Z,14.82
2022-08-19T09:16:58.838Z,13.20
2022-08-19T09:19:28.187Z,14.35
2022-08-19T09:21:57.511Z,14.30
2022-08-19T09:24:25.413Z,13.63
2022-08-19T09:26:59.239Z,13.45
2022-08-19T09:29:27.380Z,12.85
2022-08-19T09:31:55.775Z,12.07
2022-08-19T09:34:23.822Z,13.53
2022-08-19T09:36:54.535Z,13.30
2022-08-19T09:39:22.976Z,13.65
2022-08-19T09:41:51.214Z,15.40
2022-08-19T09:44:21.333Z,14.77
2022-08-19T09:46:50.096Z,16.20
2022-08-19T09:49:19.106Z,16.95
2022-08-19T09:51:51.278Z,15.67
2022-08-19T09:54:23.556Z,16.63
2022-08-19T09:56:53.273Z,15.27
2022-08-19T09:59:21.380Z,14.35
2022-08-19T10:01:49.384Z,14.85
2022-08-19T10:04:20.499Z,15.18
2022-08-19T10:06:53.408Z,16.35
2022-08-19T10:09:26.314Z,15.93
2022-08-19T10:12:03.109Z,15.55
2022-08-19T10:14:31.684Z,15.57
2022-08-19T10:17:01.270Z,16.90
2022-08-19T10:19:36.802Z,15.90
2022-08-19T10:22:10.070Z,12.57
2022-08-19T10:24:42.176Z,17.83
2022-08-19T10:27:10.602Z,16.08
2022-08-19T10:29:38.942Z,16.25
2022-08-19T10:32:14.484Z,16.35
2022-08-19T10:34:47.933Z,18.20
2022-08-19T10:37:23.712Z,18.23
2022-08-19T10:39:58.545Z,15.77
2022-08-19T10:42:26.474Z,12.63
2022-08-19T10:44:54.364Z,13.43
2022-08-19T10:47:25.443Z,13.73
2022-08-19T10:50:12.499Z,13.10
2022-08-19T10:52:49.648Z,17.63
2022-08-19T10:55:39.418Z,13.18
2022-08-19T10:58:13.222Z,11.18
2022-08-19T11:00:41.422Z,11.55
2022-08-19T11:03:09.613Z,12.13
2022-08-19T11:05:40.442Z,12.65
2022-08-19T11:08:23.283Z,12.85
2022-08-19T11:11:01.653Z,13.05
2022-08-19T11:13:30.284Z,14.23
2022-08-19T11:16:02.798Z,13.27
2022-08-19T11:18:35.062Z,13.50
2022-08-19T11:21:10.899Z,12.90
2022-08-19T11:23:38.876Z,11.80
2022-08-19T11:26:08.506Z,12.60
2022-08-19T11:28:36.417Z,12.80
2022-08-19T11:31:05.006Z,10.07
2022-08-19T11:33:33.682Z,9.47
2022-08-19T11:36:02.123Z,8.50
2022-08-19T11:38:30.183Z,8.40
2022-08-19T11:40:59.007Z,9.43
2022-08-19T11:43:29.477Z,8.18
2022-08-19T11:45:57.527Z,9.40
2022-08-19T11:48:26.298Z,9.70
2022-08-19T11:50:56.337Z,10.03
2022-08-19T11:53:24.595Z,9.82
2022-08-19T11:55:53.494Z,9.77
2022-08-19T11:58:21.622Z,12.55
2022-08-19T12:00:50.895Z,9.30
2022-08-19T12:03:19.410Z,9.45
2022-08-19T12:05:47.461Z,9.47
2022-08-19T12:08:16.481Z,8.35
2022-08-19T12:10:46.294Z,7.68
2022-08-19T12:13:16.582Z,9.88
2022-08-19T12:15:46.341Z,7.82
2022-08-19T12:18:15.851Z,8.38
2022-08-19T12:20:46.732Z,10.03
2022-08-19T12:23:14.674Z,14.75
2022-08-19T12:25:49.332Z,16.53
2022-08-19T12:28:17.389Z,16.77
2022-08-19T12:30:45.304Z,15.77
2022-08-19T12:33:14.540Z,14.47
2022-08-19T12:35:45.745Z,16.63
2022-08-19T12:38:13.845Z,15.02
2022-08-19T12:40:41.755Z,15.80
2022-08-19T12:43:10.524Z,17.00
2022-08-19T12:45:38.589Z,15.25
2022-08-19T12:48:33.019Z,14.90
2022-08-19T12:50:57.654Z,13.18
2022-08-19T12:53:26.107Z,13.37
2022-08-19T12:55:57.943Z,12.77
2022-08-19T12:58:27.451Z,12.52
2022-08-19T13:00:55.764Z,13.60
2022-08-19T13:03:28.376Z,12.30
2022-08-19T13:05:57.898Z,10.80
2022-08-19T13:08:26.058Z,11.38
2022-08-19T13:10:54.523Z,11.82
2022-08-19T13:13:22.658Z,12.13
2022-08-19T13:15:50.599Z,10.13
2022-08-19T13:18:18.592Z,12.63
2022-08-19T13:20:52.453Z,13.67
2022-08-19T13:23:22.613Z,13.13
2022-08-19T13:25:58.214Z,11.83
2022-08-19T13:28:29.031Z,10.77
2022-08-19T13:31:17.123Z,12.20
2022-08-19T13:33:46.251Z,10.07
2022-08-19T13:36:14.141Z,11.00
2022-08-19T13:38:46.280Z,10.20
2022-08-19T13:41:14.996Z,10.55
2022-08-19T13:43:42.945Z,11.48
2022-08-19T13:46:14.182Z,10.85
2022-08-19T13:48:42.718Z,10.05
2022-08-19T13:51:11.368Z,9.38
2022-08-19T13:53:39.776Z,9.55
2022-08-19T13:56:10.345Z,8.10
2022-08-19T13:58:38.583Z,8.85
2022-08-19T14:01:07.380Z,7.93
2022-08-19T14:03:36.670Z,7.72
2022-08-19T14:06:04.891Z,7.80
2022-08-19T14:08:33.324Z,7.93
2022-08-19T14:11:06.407Z,8.07
2022-08-19T14:13:36.302Z,8.23
2022-08-19T14:16:08.908Z,8.63
2022-08-19T14:18:37.021Z,6.93
2022-08-19T14:21:05.651Z,6.40
2022-08-19T14:23:33.928Z,7.10
2022-08-19T14:26:10.137Z,7.55
2022-08-19T14:28:41.827Z,7.35
2022-08-19T14:31:10.141Z,7.22
2022-08-19T14:33:37.971Z,8.10
2022-08-19T14:36:06.449Z,7.88
2022-08-19T14:38:34.589Z,8.13
2022-08-19T14:41:13.971Z,9.00
2022-08-19T14:43:43.274Z,8.65
2022-08-19T14:46:11.476Z,9.25
2022-08-19T14:48:41.597Z,8.93
2022-08-19T14:51:09.842Z,9.40
2022-08-19T14:53:37.828Z,9.15
2022-08-19T14:56:09.948Z,8.77
2022-08-19T14:58:39.162Z,8.55
2022-08-19T15:01:09.281Z,7.90
2022-08-19T15:03:37.597Z,8.10
2022-08-19T15:06:07.636Z,7.88
2022-08-19T15:08:37.891Z,7.78
2022-08-19T15:11:10.726Z,7.50
2022-08-19T15:13:38.712Z,7.20
2022-08-19T15:16:17.800Z,7.88
2022-08-19T15:18:48.208Z,6.35
2022-08-19T15:21:26.694Z,6.77
2022-08-19T15:23:56.687Z,7.10
2022-08-19T15:26:25.666Z,7.05
2022-08-19T15:28:53.599Z,6.90
2022-08-19T15:31:28.061Z,6.72
2022-08-19T15:33:58.469Z,6.63
2022-08-19T15:36:26.975Z,6.50
2022-08-19T15:38:55.554Z,6.65
2022-08-19T15:41:26.687Z,6.60
2022-08-19T15:43:56.574Z,7.10
2022-08-19T15:46:28.386Z,9.60
2022-08-19T15:49:00.157Z,7.22
2022-08-19T15:51:30.376Z,5.90
2022-08-19T15:53:58.866Z,6.07
2022-08-19T15:56:27.645Z,5.97
2022-08-19T15:59:13.946Z,6.33
2022-08-19T16:02:01.155Z,6.38
2022-08-19T16:04:46.822Z,7.93
2022-08-19T16:07:14.804Z,8.40
2022-08-19T16:09:50.853Z,6.40
2022-08-19T16:12:18.967Z,5.93
2022-08-19T16:14:47.981Z,6.18
2022-08-19T16:17:17.375Z,6.95
2022-08-19T16:19:47.578Z,6.10
2022-08-19T16:22:17.936Z,6.22
2022-08-19T16:24:45.899Z,6.87
2022-08-19T16:27:13.777Z,6.80
2022-08-19T16:29:41.684Z,8.38
2022-08-19T16:32:11.749Z,8.43
2022-08-19T16:34:42.399Z,6.97
2022-08-19T16:37:10.907Z,6.90
2022-08-19T16:39:38.972Z,6.40
2022-08-19T16:42:08.698Z,7.50
2022-08-19T16:44:36.952Z,8.15
2022-08-19T16:47:05.049Z,7.72
2022-08-19T16:49:53.817Z,7.72
2022-08-19T16:52:26.902Z,8.50
2022-08-19T16:54:55.045Z,9.70
2022-08-19T16:57:24.407Z,9.48
2022-08-19T16:59:52.889Z,8.52
2022-08-19T17:02:23.447Z,9.07
2022-08-19T17:04:58.047Z,9.63
2022-08-19T17:07:28.573Z,9.95
2022-08-19T17:09:57.422Z,9.25
2022-08-19T17:12:30.579Z,9.00
2022-08-19T17:15:02.202Z,9.07
2022-08-19T17:17:30.491Z,9.25
2022-08-19T17:19:59.060Z,8.40
2022-08-19T17:22:28.985Z,8.45
2022-08-19T17:24:58.396Z,8.50
2022-08-19T17:27:31.421Z,8.60
2022-08-19T17:30:02.355Z,8.45
2022-08-19T17:32:30.797Z,8.55
2022-08-19T17:34:58.760Z,8.75
2022-08-19T17:37:28.156Z,8.82
2022-08-19T17:39:56.226Z,8.63
2022-08-19T17:42:24.149Z,8.45
2022-08-19T17:44:51.981Z,8.75
2022-08-19T17:47:21.246Z,8.63
2022-08-19T17:49:49.210Z,9.82
2022-08-19T17:52:17.132Z,11.70
2022-08-19T17:54:46.934Z,12.18
2022-08-19T17:57:15.101Z,10.13
2022-08-19T17:59:43.164Z,9.80
2022-08-19T18:02:12.099Z,10.20
2022-08-19T18:04:41.392Z,9.48
2022-08-19T18:07:11.012Z,9.45
2022-08-19T18:09:42.878Z,10.27
2022-08-19T18:12:23.340Z,10.43
2022-08-19T18:14:51.693Z,11.50
2022-08-19T18:17:22.892Z,11.60
2022-08-19T18:19:50.802Z,12.25
2022-08-19T18:22:27.920Z,12.02
2022-08-19T18:24:59.112Z,12.60
2022-08-19T18:27:28.876Z,12.77
2022-08-19T18:29:59.077Z,12.32
2022-08-19T18:32:27.945Z,12.82
2022-08-19T18:34:56.129Z,14.50
2022-08-19T18:37:25.709Z,13.70
2022-08-19T18:40:11.542Z,17.73
2022-08-19T18:43:02.281Z,12.48
2022-08-19T18:45:48.111Z,12.05
2022-08-19T18:48:33.956Z,11.88
2022-08-19T18:51:02.630Z,12.40
2022-08-19T18:53:33.303Z,13.10
2022-08-19T18:56:01.482Z,12.98
2022-08-19T18:58:34.352Z,12.43
2022-08-19T19:01:12.896Z,12.98
2022-08-19T19:03:43.589Z,13.32
2022-08-19T19:06:11.608Z,12.93
2022-08-19T19:08:40.917Z,12.93
2022-08-19T19:11:09.275Z,12.85
2022-08-19T19:13:40.992Z,12.85
2022-08-19T19:16:12.359Z,12.25
2022-08-19T19:18:40.574Z,12.30
2022-08-19T19:21:09.234Z,12.80
2022-08-19T19:23:40.890Z,12.40
2022-08-19T19:26:10.516Z,12.38
2022-08-19T19:28:43.681Z,12.23
2022-08-19T19:31:13.791Z,13.52
2022-08-19T19:33:41.647Z,12.57
2022-08-19T19:36:09.871Z,12.10
2022-08-19T19:38:37.718Z,11.80
2022-08-19T19:41:05.784Z,11.60
2022-08-19T19:43:34.878Z,13.43
2022-08-19T19:46:10.332Z,12.70
2022-08-19T19:48:38.260Z,12.23
2022-08-19T19:51:06.324Z,12.20
2022-08-19T19:53:34.229Z,13.30
2022-08-19T19:56:02.581Z,13.10
2022-08-19T19:58:31.923Z,17.83
2022-08-19T20:01:01.215Z,14.38
2022-08-19T20:03:33.184Z,14.23
2022-08-19T20:06:01.070Z,14.73
2022-08-19T20:08:47.504Z,15.32
2022-08-19T20:11:31.047Z,14.43
2022-08-19T20:14:01.094Z,15.57
2022-08-19T20:16:30.882Z,14.82
2022-08-19T20:19:01.936Z,15.05
2022-08-19T20:21:32.448Z,17.65
2022-08-19T20:24:08.559Z,18.15
2022-08-19T20:26:38.453Z,19.58
2022-08-19T20:29:13.824Z,19.53
2022-08-19T20:31:57.977Z,18.33
2022-08-19T20:34:29.224Z,19.65
2022-08-19T20:36:57.205Z,19.17
2022-08-19T20:39:25.157Z,18.17
2022-08-19T20:41:53.067Z,18.05
2022-08-19T20:44:21.486Z,17.08
2022-08-19T20:46:54.265Z,15.10
2022-08-19T20:49:27.059Z,14.57
2022-08-19T20:51:57.465Z,13.55
2022-08-19T20:54:25.925Z,13.98
2022-08-19T20:56:53.987Z,14.20
2022-08-19T20:59:23.119Z,13.32
2022-08-19T21:01:52.280Z,13.67
2022-08-19T21:04:20.326Z,13.18
2022-08-19T21:06:48.220Z,12.65
2022-08-19T21:09:17.467Z,13.25
2022-08-19T21:11:45.544Z,12.73
2022-08-19T21:14:13.777Z,12.85
2022-08-19T21:16:41.706Z,13.52
2022-08-19T21:19:09.757Z,12.80
2022-08-19T21:21:37.871Z,13.18
2022-08-19T21:24:06.389Z,12.15
2022-08-19T21:26:35.779Z,12.48
2022-08-19T21:29:03.809Z,11.15
2022-08-19T21:31:31.677Z,12.07
2022-08-19T21:34:00.915Z,11.98
2022-08-19T21:36:28.865Z,11.40
2022-08-19T21:38:56.748Z,12.15
2022-08-19T21:41:24.667Z,12.03
2022-08-19T21:43:53.889Z,12.82
2022-08-19T21:46:22.391Z,11.93
2022-08-19T21:48:50.326Z,13.15
2022-08-19T21:51:18.301Z,12.13
2022-08-19T21:53:49.192Z,12.80
2022-08-19T21:56:20.880Z,12.23
2022-08-19T21:58:48.748Z,11.88
2022-08-19T22:01:18.306Z,12.07
2022-08-19T22:03:46.299Z,12.80
2022-08-19T22:06:14.204Z,12.63
2022-08-19T22:08:44.628Z,12.90
2022-08-19T22:11:13.042Z,12.57
2022-08-19T22:13:41.205Z,12.00
2022-08-19T22:16:10.452Z,12.35
2022-08-19T22:18:39.780Z,11.60
2022-08-19T22:21:11.698Z,11.68
2022-08-19T22:23:40.839Z,12.20
2022-08-19T22:26:09.105Z,11.40
2022-08-19T22:28:37.138Z,11.93
2022-08-19T22:31:05.861Z,12.53
2022-08-19T22:33:34.824Z,12.65
2022-08-19T22:36:07.510Z,12.88
2022-08-19T22:38:35.741Z,13.27
2022-08-19T22:41:03.688Z,12.68
2022-08-19T22:43:32.431Z,12.70
2022-08-19T22:46:01.201Z,12.53
2022-08-19T22:48:31.396Z,13.00
2022-08-19T22:51:17.430Z,12.20
2022-08-19T22:53:47.956Z,12.27
2022-08-19T22:56:18.185Z,12.13
2022-08-19T22:58:47.027Z,12.98
2022-08-19T23:01:27.726Z,12.13
2022-08-19T23:03:59.348Z,12.80
2022-08-19T23:06:33.209Z,13.07
2022-08-19T23:09:05.126Z,12.38
2022-08-19T23:11:35.557Z,12.68
2022-08-19T23:14:06.808Z,12.88
2022-08-19T23:16:36.987Z,12.70
2022-08-19T23:19:05.118Z,12.00
2022-08-19T23:21:33.113Z,13.43
2022-08-19T23:24:01.406Z,12.98
2022-08-19T23:26:35.166Z,11.93
2022-08-19T23:29:21.541Z,12.10
2022-08-19T23:31:49.781Z,12.43
2022-08-19T23:34:18.043Z,12.13
2022-08-19T23:36:46.280Z,12.25
2022-08-19T23:39:14.194Z,12.05
2022-08-19T23:41:43.606Z,14.32
2022-08-19T23:44:14.802Z,13.95
2022-08-19T23:46:54.546Z,13.25
2022-08-19T23:49:22.843Z,12.95
2022-08-19T23:51:50.749Z,13.50
2022-08-19T23:54:18.764Z,11.65
2022-08-19T23:56:48.093Z,10.23
2022-08-19T23:59:16.318Z,10.90
